Kingussie, United Kingdom
Current Conditions -  °F | °C
As of 7:50 AM on Saturday 25 Oct 2014 (Local Time) from EGPE Reporting Station
Rain Showers Rain Showers  
Wind Chill: 42°   Ceiling: Unl
Heat Index: 48°   Visibility: 6mi
Dew Point: 45°   Wind: 15mph
Humidity: 87%   Direction: 200°SSW
Pressure: 29.47"   Gusts: NA
Location:  57.08°N, 4.05°W
Report Text: EGPE 250650Z 20013KT 9999 VCSH FEW025 SCT038 09/07 Q0998
Loading
Personal Weather Stations






























Interactive Weather Map
Tropical Storm Tracking
New forecast layout! Learn more

10-Day Weather Forecast

Advertisements
Track Severe Weather on mobile